Time;durP1;ratioP1;P1;durP2;ratioP2;P2;SDS_P1;SDS_P2;PMS_P1;PMS_P2;Temp;Humidity;BMP_temperature;BMP_pressure;BME280_temperature;BME280_humidity;BME280_pressure;Samples;Min_cycle;Max_cycle;Signal;HPM_P1;HPM_P2
2023/07/19 00:02:24;;;;;;;5.05;2.95;;;;;;;17.02;79.74;101251.16;5042189;28;20018;-63
2023/07/19 00:04:50;;;;;;;6.78;3.00;;;;;;;17.06;79.72;101247.25;5034184;28;20091;-64
2023/07/19 00:07:15;;;;;;;5.57;2.85;;;;;;;17.11;79.29;101244.25;5023758;28;20245;-64
2023/07/19 00:09:40;;;;;;;4.50;2.80;;;;;;;17.07;78.94;101245.44;5040351;28;20025;-64
2023/07/19 00:12:06;;;;;;;4.32;2.83;;;;;;;17.07;79.26;101240.06;5046377;28;20455;-63
2023/07/19 00:14:32;;;;;;;6.15;3.35;;;;;;;17.12;79.47;101237.88;5028738;28;20021;-63
2023/07/19 00:16:57;;;;;;;3.47;2.60;;;;;;;17.16;78.92;101237.56;5026111;28;20120;-62
2023/07/19 00:19:22;;;;;;;5.35;2.45;;;;;;;17.13;79.39;101243.16;5032705;28;20483;-63
2023/07/19 00:21:48;;;;;;;5.20;2.58;;;;;;;17.08;79.42;101236.38;5025126;28;20035;-62
2023/07/19 00:24:14;;;;;;;5.25;2.70;;;;;;;17.10;79.17;101237.16;5036075;28;20024;-63
2023/07/19 00:26:39;;;;;;;4.30;2.70;;;;;;;17.09;79.22;101230.03;5025716;28;20426;-63
2023/07/19 00:29:04;;;;;;;6.97;3.17;;;;;;;17.04;79.92;101226.81;5025261;28;20036;-63
2023/07/19 00:31:30;;;;;;;3.85;2.67;;;;;;;17.08;79.79;101225.63;5042420;28;20021;-64
2023/07/19 00:33:55;;;;;;;5.25;2.80;;;;;;;17.05;79.81;101221.31;5024578;28;20032;-63
2023/07/19 00:36:21;;;;;;;4.60;2.50;;;;;;;16.96;80.46;101221.13;5029261;28;20613;-64
2023/07/19 00:38:46;;;;;;;5.07;2.67;;;;;;;16.95;80.93;101211.34;5021858;28;20033;-63
2023/07/19 00:41:12;;;;;;;4.07;2.53;;;;;;;16.96;80.92;101216.59;5034323;28;20029;-64
2023/07/19 00:43:37;;;;;;;4.72;2.60;;;;;;;16.86;80.95;101202.13;5041031;28;20500;-63
2023/07/19 00:46:03;;;;;;;4.10;2.55;;;;;;;16.84;80.37;101202.22;5028084;28;20036;-64
2023/07/19 00:48:28;;;;;;;4.60;2.55;;;;;;;16.83;80.35;101203.19;5022660;28;20538;-63
2023/07/19 00:50:55;;;;;;;4.30;2.58;;;;;;;16.82;80.53;101200.63;5022940;28;20388;-64
2023/07/19 00:53:24;;;;;;;5.63;2.63;;;;;;;16.80;81.49;101210.59;5040077;28;20135;-64
2023/07/19 00:55:50;;;;;;;3.00;2.50;;;;;;;16.73;81.37;101198.59;5027918;28;20029;-64
2023/07/19 00:58:18;;;;;;;5.43;2.67;;;;;;;16.75;81.45;101202.00;5033192;28;20031;-63
2023/07/19 01:00:44;;;;;;;4.97;2.80;;;;;;;16.75;81.60;101194.81;5029797;28;20064;-63
2023/07/19 01:03:10;;;;;;;5.82;2.50;;;;;;;16.71;81.92;101187.91;5034009;28;20064;-63
2023/07/19 01:05:35;;;;;;;4.20;2.47;;;;;;;16.73;82.01;101190.53;5026444;28;20033;-63
2023/07/19 01:08:01;;;;;;;7.40;2.63;;;;;;;16.74;81.92;101195.78;5023619;28;20320;-63
2023/07/19 01:10:26;;;;;;;5.40;2.83;;;;;;;16.60;82.68;101196.72;5035749;28;20515;-63
2023/07/19 01:13:18;;;;;;;5.97;2.75;;;;;;;16.66;81.62;101188.22;5028505;28;20036;-63
2023/07/19 01:15:44;;;;;;;4.38;2.45;;;;;;;16.61;83.04;101186.84;5022163;28;20054;-63
2023/07/19 01:18:09;;;;;;;4.50;2.60;;;;;;;16.57;83.00;101182.66;5037627;28;20162;-63
2023/07/19 01:20:35;;;;;;;3.92;2.78;;;;;;;16.53;83.29;101184.69;5023698;28;20095;-63
2023/07/19 01:23:01;;;;;;;3.88;2.70;;;;;;;16.46;83.77;101180.72;5022121;28;20025;-63
2023/07/19 01:25:26;;;;;;;6.03;2.75;;;;;;;16.47;83.60;101184.25;5035444;28;20121;-63
2023/07/19 01:27:52;;;;;;;3.80;2.60;;;;;;;16.43;83.88;101184.50;5022168;28;20032;-63
2023/07/19 01:30:17;;;;;;;3.75;2.88;;;;;;;16.46;84.09;101177.16;5027391;28;20295;-64
2023/07/19 01:32:44;;;;;;;3.33;2.50;;;;;;;16.41;85.38;101190.91;5032934;28;20026;-63
2023/07/19 01:35:10;;;;;;;3.25;2.40;;;;;;;16.34;86.21;101179.72;5039741;28;20264;-63
2023/07/19 01:37:35;;;;;;;3.80;2.40;;;;;;;16.34;85.05;101177.03;5037063;28;20025;-64
2023/07/19 01:40:01;;;;;;;3.88;2.80;;;;;;;16.34;85.09;101168.97;5032525;28;20487;-63
2023/07/19 01:42:27;;;;;;;4.70;2.63;;;;;;;16.32;85.67;101167.38;5036854;28;20068;-63
2023/07/19 01:44:54;;;;;;;6.90;3.58;;;;;;;16.32;86.03;101165.56;5030200;28;20456;-63
2023/07/19 01:47:19;;;;;;;7.38;4.03;;;;;;;16.39;85.44;101161.50;5029079;28;20041;-63
2023/07/19 01:49:45;;;;;;;7.60;4.18;;;;;;;16.40;85.56;101159.66;5042093;28;20098;-63
2023/07/19 01:52:10;;;;;;;6.43;4.10;;;;;;;16.41;85.08;101162.22;5037418;28;20506;-63
2023/07/19 01:54:36;;;;;;;9.98;3.78;;;;;;;16.49;84.97;101163.53;5028608;28;20067;-63
2023/07/19 01:57:01;;;;;;;7.15;4.25;;;;;;;16.47;85.26;101160.06;5034427;28;20021;-63
2023/07/19 01:59:27;;;;;;;4.70;3.20;;;;;;;16.54;85.90;101166.75;5037727;28;20409;-63
2023/07/19 02:01:53;;;;;;;8.25;3.45;;;;;;;16.55;85.43;101157.69;5029539;28;20037;-63
2023/07/19 02:04:19;;;;;;;5.15;3.20;;;;;;;16.67;84.97;101160.38;5030859;28;20021;-63
2023/07/19 02:06:44;;;;;;;5.78;3.30;;;;;;;16.69;84.61;101161.13;5032468;28;21317;-63
2023/07/19 02:09:10;;;;;;;5.07;2.92;;;;;;;16.69;84.42;101158.44;5036140;28;20112;-63
2023/07/19 02:11:35;;;;;;;5.88;3.05;;;;;;;16.67;84.38;101151.44;5041167;28;20479;-63
2023/07/19 02:14:04;;;;;;;5.00;3.38;;;;;;;16.66;85.06;101152.44;5038647;28;20029;-64
2023/07/19 02:16:29;;;;;;;5.88;3.50;;;;;;;16.62;84.62;101146.41;5042423;28;20025;-63
2023/07/19 02:18:55;;;;;;;6.47;3.47;;;;;;;16.72;84.82;101148.44;5028931;28;20071;-63
2023/07/19 02:21:20;;;;;;;4.70;3.00;;;;;;;16.79;83.96;101144.38;5038909;28;20523;-63
2023/07/19 02:23:45;;;;;;;4.63;3.03;;;;;;;16.73;84.49;101145.69;5035027;28;20025;-63
2023/07/19 02:26:11;;;;;;;5.90;3.10;;;;;;;16.68;84.02;101143.31;5034484;28;20041;-62
2023/07/19 02:28:37;;;;;;;4.95;2.95;;;;;;;16.65;84.98;101139.97;5041733;28;20040;-63
2023/07/19 02:31:03;;;;;;;4.80;3.10;;;;;;;16.71;84.98;101141.34;5034789;28;20020;-63
2023/07/19 02:33:28;;;;;;;5.60;2.85;;;;;;;16.68;84.82;101129.88;5023703;28;20551;-63
2023/07/19 02:35:55;;;;;;;4.45;3.03;;;;;;;16.72;85.40;101145.75;5033232;28;20025;-63
2023/07/19 02:38:26;;;;;;;7.43;2.97;;;;;;;16.81;84.68;101135.25;5031552;28;20033;-63
2023/07/19 02:40:58;;;;;;;4.80;3.13;;;;;;;16.75;84.55;101126.75;5036470;28;20040;-63
2023/07/19 02:43:23;;;;;;;5.88;3.05;;;;;;;16.73;84.64;101131.41;5037466;28;20036;-63
2023/07/19 02:45:49;;;;;;;7.15;2.72;;;;;;;16.70;85.31;101137.81;5042374;28;20025;-63
2023/07/19 02:48:14;;;;;;;4.78;3.03;;;;;;;16.70;85.41;101135.13;5041522;28;20033;-63
2023/07/19 02:50:45;;;;;;;5.82;3.00;;;;;;;16.68;85.59;101140.63;5038128;28;20105;-64
2023/07/19 02:53:11;;;;;;;4.45;2.60;;;;;;;16.69;85.85;101138.78;5027423;28;20025;-63
2023/07/19 02:55:36;;;;;;;5.13;2.90;;;;;;;16.70;85.20;101145.88;5040415;28;20041;-63
2023/07/19 02:58:02;;;;;;;4.55;2.70;;;;;;;16.67;86.10;101146.06;5035816;28;20017;-64
2023/07/19 03:00:27;;;;;;;4.05;2.92;;;;;;;16.66;86.89;101147.91;5033166;28;20070;-64
2023/07/19 03:02:53;;;;;;;4.18;2.47;;;;;;;16.72;87.04;101141.25;5036468;28;20036;-64
2023/07/19 03:05:20;;;;;;;3.47;2.95;;;;;;;16.69;86.60;101142.31;5038298;28;20028;-63
2023/07/19 03:07:45;;;;;;;3.20;2.90;;;;;;;16.69;86.37;101139.63;5027894;28;20029;-64
2023/07/19 03:10:11;;;;;;;4.20;2.60;;;;;;;16.71;86.19;101141.34;5032981;28;20045;-63
2023/07/19 03:12:37;;;;;;;3.97;2.90;;;;;;;16.71;86.12;101147.56;5041228;28;20029;-63
2023/07/19 03:15:03;;;;;;;3.95;3.25;;;;;;;16.62;87.00;101140.19;5031170;28;20032;-64
2023/07/19 03:17:28;;;;;;;5.75;2.92;;;;;;;16.62;86.47;101141.03;5025589;28;20025;-63
2023/07/19 03:19:54;;;;;;;6.38;3.15;;;;;;;16.64;86.74;101143.63;5025875;28;20037;-64
2023/07/19 03:22:19;;;;;;;5.70;2.90;;;;;;;16.59;87.22;101146.63;5040300;28;20032;-63
2023/07/19 03:24:45;;;;;;;4.40;2.88;;;;;;;16.58;87.29;101149.44;5034061;28;20102;-64
2023/07/19 03:27:10;;;;;;;4.38;3.03;;;;;;;16.55;87.77;101152.31;5037979;28;20438;-64
2023/07/19 03:29:36;;;;;;;5.00;3.13;;;;;;;16.57;87.84;101153.09;5033503;28;20104;-63
2023/07/19 03:32:02;;;;;;;3.95;2.50;;;;;;;16.47;88.33;101158.25;5035860;28;20037;-63
2023/07/19 03:34:27;;;;;;;3.97;2.67;;;;;;;16.44;89.17;101156.66;5031320;28;20037;-64
2023/07/19 03:36:53;;;;;;;3.70;2.63;;;;;;;16.45;89.05;101152.13;5036085;28;20028;-63
2023/07/19 03:39:18;;;;;;;4.75;2.65;;;;;;;16.42;89.14;101155.88;5030545;28;20429;-64
2023/07/19 03:41:44;;;;;;;4.35;2.85;;;;;;;16.50;88.77;101149.13;5022705;28;20671;-64
2023/07/19 03:44:09;;;;;;;5.82;2.88;;;;;;;16.54;88.32;101150.63;5023076;28;20117;-63
2023/07/19 03:46:35;;;;;;;4.60;2.60;;;;;;;16.61;88.36;101146.53;5032792;28;20472;-63
2023/07/19 03:49:01;;;;;;;4.20;2.65;;;;;;;16.64;88.32;101151.69;5023498;28;20037;-64
2023/07/19 03:51:26;;;;;;;3.28;2.58;;;;;;;16.68;88.00;101155.88;5036847;28;20037;-63
2023/07/19 03:53:52;;;;;;;3.85;3.00;;;;;;;16.74;87.31;101162.66;5022220;28;20195;-63
2023/07/19 03:56:17;;;;;;;6.63;2.83;;;;;;;16.81;86.31;101167.50;5035106;28;20074;-63
2023/07/19 03:58:47;;;;;;;3.97;2.65;;;;;;;16.84;85.80;101156.50;5024743;28;20087;-63
2023/07/19 04:01:12;;;;;;;3.45;3.15;;;;;;;16.82;84.94;101147.72;5043333;28;20025;-63
2023/07/19 04:03:38;;;;;;;4.72;3.47;;;;;;;16.89;84.59;101154.38;5024163;28;20033;-63
2023/07/19 04:06:03;;;;;;;3.53;3.20;;;;;;;16.87;82.87;101164.34;5036928;28;20053;-63
2023/07/19 04:08:28;;;;;;;4.70;3.40;;;;;;;16.92;82.89;101161.34;5026671;28;20032;-63
2023/07/19 04:10:54;;;;;;;5.68;3.55;;;;;;;16.92;82.80;101156.81;5037120;28;20091;-63
2023/07/19 04:13:19;;;;;;;6.80;3.70;;;;;;;16.94;82.05;101154.03;5037305;28;20449;-63
2023/07/19 04:15:45;;;;;;;7.15;3.72;;;;;;;17.02;82.29;101150.78;5022349;28;20036;-64
2023/07/19 04:18:10;;;;;;;5.80;3.80;;;;;;;17.07;82.83;101157.53;5025641;28;20028;-63
2023/07/19 04:20:36;;;;;;;5.88;3.90;;;;;;;17.07;82.44;101151.31;5040320;28;20028;-63
2023/07/19 04:23:03;;;;;;;4.82;3.50;;;;;;;17.08;83.14;101148.50;5041480;28;20036;-63
2023/07/19 04:25:30;;;;;;;6.05;3.85;;;;;;;17.07;85.70;101151.31;5024182;28;20033;-63
2023/07/19 04:27:55;;;;;;;6.90;3.92;;;;;;;17.02;85.68;101156.16;5032649;28;20419;-63
2023/07/19 04:30:20;;;;;;;7.35;3.38;;;;;;;16.99;85.18;101153.69;5031581;28;20045;-64
2023/07/19 04:32:46;;;;;;;5.82;3.33;;;;;;;17.07;85.79;101159.38;5034195;28;20033;-63
2023/07/19 04:35:12;;;;;;;9.13;3.88;;;;;;;17.07;85.07;101162.91;5029608;28;20430;-63
2023/07/19 04:37:38;;;;;;;5.85;3.28;;;;;;;17.13;85.67;101156.22;5034773;28;20032;-64
2023/07/19 04:40:06;;;;;;;6.88;3.33;;;;;;;17.11;85.24;101156.34;5026715;28;20419;-63
2023/07/19 04:42:31;;;;;;;9.43;3.85;;;;;;;17.11;85.14;101159.03;5031744;28;20025;-64
2023/07/19 04:44:57;;;;;;;8.50;3.92;;;;;;;17.13;84.96;101164.28;5030601;28;20032;-63
2023/07/19 04:47:22;;;;;;;8.88;3.80;;;;;;;17.10;83.73;101160.00;5033882;28;20045;-63
2023/07/19 04:49:47;;;;;;;8.38;3.80;;;;;;;17.15;83.94;101162.38;5042437;28;20554;-64
2023/07/19 04:52:13;;;;;;;6.07;3.55;;;;;;;17.16;83.88;101166.75;5029071;28;20060;-64
2023/07/19 04:54:38;;;;;;;6.05;3.70;;;;;;;17.18;83.74;101164.84;5022257;28;20017;-64
2023/07/19 04:57:05;;;;;;;6.03;3.67;;;;;;;17.20;83.01;101167.41;5023169;28;20032;-63
2023/07/19 04:59:33;;;;;;;5.50;3.92;;;;;;;17.25;82.63;101171.47;5031064;28;20046;-64
2023/07/19 05:01:59;;;;;;;7.03;4.45;;;;;;;17.27;81.16;101169.53;5031143;28;20030;-63
2023/07/19 05:04:24;;;;;;;6.63;3.83;;;;;;;17.36;81.53;101168.00;5021857;28;20609;-63
2023/07/19 05:06:49;;;;;;;7.15;4.07;;;;;;;17.41;81.54;101180.13;5039870;28;20588;-64
2023/07/19 05:09:15;;;;;;;8.57;4.25;;;;;;;17.41;78.57;101166.66;5032980;28;20022;-64
2023/07/19 05:11:41;;;;;;;6.78;3.70;;;;;;;17.43;79.22;101170.13;5040869;28;20025;-63
2023/07/19 05:14:06;;;;;;;10.80;4.30;;;;;;;17.45;79.16;101169.13;5029376;28;20538;-63
2023/07/19 05:16:35;;;;;;;8.10;4.63;;;;;;;17.55;79.16;101173.69;5025852;28;20472;-63
2023/07/19 05:19:03;;;;;;;6.38;4.20;;;;;;;17.56;78.08;101177.28;5034730;28;20037;-64
2023/07/19 05:21:28;;;;;;;6.22;4.40;;;;;;;17.64;77.05;101169.44;5040417;28;20021;-63
2023/07/19 05:23:54;;;;;;;6.68;4.65;;;;;;;17.69;77.31;101167.28;5035527;28;20101;-64
2023/07/19 05:26:19;;;;;;;9.73;5.28;;;;;;;17.68;76.34;101179.00;5039045;28;20013;-64
2023/07/19 05:28:45;;;;;;;7.78;4.93;;;;;;;17.72;76.39;101177.81;5024728;28;20035;-63
2023/07/19 05:31:11;;;;;;;8.82;5.05;;;;;;;17.79;75.61;101187.19;5024527;28;20310;-64
2023/07/19 05:33:36;;;;;;;8.27;5.47;;;;;;;17.90;75.00;101179.16;5029924;28;20094;-63
2023/07/19 05:36:02;;;;;;;8.10;5.70;;;;;;;17.91;74.66;101172.78;5025192;28;20029;-63
2023/07/19 05:38:28;;;;;;;6.57;5.18;;;;;;;17.96;74.94;101166.19;5032536;28;20108;-64
2023/07/19 05:40:59;;;;;;;7.55;5.55;;;;;;;18.01;74.73;101177.47;5043703;28;20028;-64
2023/07/19 05:43:25;;;;;;;11.63;6.50;;;;;;;18.05;74.00;101168.16;5035895;28;20025;-65
2023/07/19 05:45:50;;;;;;;10.45;6.13;;;;;;;18.09;74.39;101170.50;5036055;28;20410;-64
2023/07/19 05:48:15;;;;;;;9.57;5.85;;;;;;;18.16;72.95;101169.06;5042896;28;20053;-64
2023/07/19 05:50:41;;;;;;;8.75;6.15;;;;;;;18.29;72.50;101168.97;5041695;28;20032;-64
2023/07/19 05:53:06;;;;;;;9.73;6.25;;;;;;;18.41;71.95;101170.69;5037716;28;20040;-64
2023/07/19 05:55:32;;;;;;;10.50;6.80;;;;;;;18.57;72.09;101169.50;5037331;28;20060;-64
2023/07/19 05:57:57;;;;;;;9.18;5.30;;;;;;;18.78;70.66;101173.22;5041040;28;20029;-64
2023/07/19 06:00:24;;;;;;;8.70;5.80;;;;;;;18.81;69.19;101166.69;5037462;28;20392;-64
2023/07/19 06:02:53;;;;;;;8.23;5.35;;;;;;;18.89;68.72;101173.22;5038575;28;20021;-64
2023/07/19 06:05:19;;;;;;;6.75;5.20;;;;;;;18.99;68.18;101176.03;5041317;28;20499;-64
2023/07/19 06:07:47;;;;;;;6.53;4.72;;;;;;;19.04;67.54;101171.09;5026984;28;20115;-64
2023/07/19 06:10:13;;;;;;;9.13;5.40;;;;;;;19.06;67.70;101166.47;5043984;28;20021;-64
2023/07/19 06:12:42;;;;;;;9.05;5.30;;;;;;;19.12;67.38;101171.34;5035754;28;20025;-64
2023/07/19 06:15:08;;;;;;;11.18;6.22;;;;;;;19.10;66.72;101172.44;5031569;28;20037;-64
2023/07/19 06:17:33;;;;;;;7.95;5.93;;;;;;;19.05;66.88;101178.19;5034752;28;20029;-64
2023/07/19 06:19:58;;;;;;;10.18;5.78;;;;;;;19.11;66.68;101172.31;5052911;28;20032;-64
2023/07/19 06:22:24;;;;;;;7.72;5.60;;;;;;;19.10;65.97;101175.13;5029169;28;20029;-63
2023/07/19 06:24:50;;;;;;;7.15;5.68;;;;;;;19.25;66.97;101173.03;5040102;28;20395;-63
2023/07/19 06:27:16;;;;;;;7.35;4.90;;;;;;;19.37;64.94;101172.88;5027344;28;20108;-63
2023/07/19 06:29:43;;;;;;;6.40;5.43;;;;;;;19.50;64.75;101171.88;5039199;28;20033;-63
2023/07/19 06:32:08;;;;;;;9.75;5.25;;;;;;;19.60;64.12;101167.41;5027420;28;20032;-64
2023/07/19 06:34:34;;;;;;;9.38;5.20;;;;;;;19.73;63.86;101169.94;5029259;28;20245;-63
2023/07/19 06:36:59;;;;;;;7.55;4.88;;;;;;;19.77;63.09;101172.28;5038104;28;20017;-64
2023/07/19 06:39:24;;;;;;;7.43;4.90;;;;;;;20.02;62.11;101162.97;5040813;28;20567;-64
2023/07/19 06:41:50;;;;;;;6.82;4.90;;;;;;;20.48;62.01;101160.78;5035494;28;20032;-64
2023/07/19 06:44:15;;;;;;;8.77;4.80;;;;;;;20.72;60.06;101155.97;5036610;28;21599;-65
2023/07/19 06:46:41;;;;;;;6.13;4.20;;;;;;;21.02;58.81;101157.78;5036101;28;20060;-65
2023/07/19 06:49:06;;;;;;;7.95;5.28;;;;;;;21.33;57.40;101155.06;5043316;28;20033;-65
2023/07/19 06:51:32;;;;;;;7.85;4.78;;;;;;;21.68;57.84;101167.19;5023011;28;20022;-64
2023/07/19 06:53:58;;;;;;;9.23;4.90;;;;;;;21.69;56.92;101163.47;5024367;28;20028;-65
2023/07/19 06:56:23;;;;;;;7.68;4.63;;;;;;;21.88;56.04;101171.63;5023147;28;20096;-65
2023/07/19 06:58:49;;;;;;;8.20;4.65;;;;;;;22.19;56.65;101158.75;5032864;28;20052;-65
2023/07/19 07:01:14;;;;;;;7.97;4.47;;;;;;;22.39;54.29;101167.72;5031687;28;20539;-65
2023/07/19 07:03:40;;;;;;;9.38;4.88;;;;;;;22.11;53.92;101166.72;5032559;28;20519;-65
2023/07/19 07:06:05;;;;;;;5.65;4.05;;;;;;;22.05;54.66;101167.31;5023382;28;20494;-66
2023/07/19 07:08:31;;;;;;;6.63;4.38;;;;;;;21.98;54.46;101166.16;5034737;28;20107;-67
2023/07/19 07:10:59;;;;;;;5.95;4.20;;;;;;;21.72;54.86;101177.59;5027833;28;20189;-65
2023/07/19 07:13:25;;;;;;;6.63;4.20;;;;;;;21.80;55.66;101175.03;5038626;28;20029;-65
2023/07/19 07:15:51;;;;;;;7.13;3.80;;;;;;;21.87;54.76;101184.31;5023552;28;20156;-65
2023/07/19 07:18:17;;;;;;;7.90;3.95;;;;;;;22.21;54.49;101172.19;5023732;28;20464;-67
2023/07/19 07:20:42;;;;;;;7.80;4.35;;;;;;;22.44;54.47;101173.53;5023437;28;20150;-66
2023/07/19 07:23:08;;;;;;;6.18;4.45;;;;;;;22.55;53.65;101175.22;5032476;28;20487;-65
2023/07/19 07:25:33;;;;;;;8.00;3.75;;;;;;;22.99;52.96;101172.78;5023825;28;20021;-65
2023/07/19 07:27:59;;;;;;;7.75;3.50;;;;;;;23.73;51.91;101171.75;5036864;28;20116;-65
2023/07/19 07:30:25;;;;;;;7.28;3.65;;;;;;;23.91;50.08;101175.34;5035580;28;20041;-65
2023/07/19 07:32:50;;;;;;;8.35;4.30;;;;;;;23.95;49.49;101175.84;5030856;28;20292;-65
2023/07/19 07:35:16;;;;;;;5.25;3.17;;;;;;;24.04;49.03;101175.78;5038297;28;20033;-65
2023/07/19 07:37:41;;;;;;;7.10;3.67;;;;;;;24.22;47.62;101167.59;5029885;28;20040;-64
2023/07/19 07:40:08;;;;;;;6.57;3.30;;;;;;;24.64;47.61;101166.88;5025104;28;20336;-66
2023/07/19 07:42:34;;;;;;;7.05;3.20;;;;;;;24.91;46.65;101167.66;5032687;28;20017;-64
2023/07/19 07:45:02;;;;;;;5.80;4.03;;;;;;;24.82;45.90;101164.91;5041645;28;20039;-64
2023/07/19 07:47:28;;;;;;;6.32;3.40;;;;;;;24.49;46.06;101168.47;5039734;28;20400;-64
2023/07/19 07:49:55;;;;;;;5.15;2.90;;;;;;;24.15;45.93;101169.22;5032871;28;20454;-64
2023/07/19 07:52:21;;;;;;;3.85;2.70;;;;;;;24.11;46.15;101157.81;5034576;28;20115;-64
2023/07/19 07:54:49;;;;;;;4.13;2.60;;;;;;;24.39;45.95;101159.56;5027549;28;20569;-64
2023/07/19 07:57:14;;;;;;;5.18;2.88;;;;;;;24.51;45.81;101167.31;5044576;28;20107;-64
2023/07/19 07:59:40;;;;;;;7.35;3.75;;;;;;;24.33;45.87;101169.22;5039638;28;20147;-64
2023/07/19 08:02:06;;;;;;;3.72;2.30;;;;;;;24.15;45.39;101160.22;5044561;28;20410;-64
2023/07/19 08:04:32;;;;;;;5.20;2.80;;;;;;;23.95;47.20;101162.25;5034828;28;20024;-64
2023/07/19 08:06:57;;;;;;;5.60;2.50;;;;;;;23.76;47.21;101164.16;5038489;28;20522;-64
2023/07/19 08:09:23;;;;;;;5.95;2.25;;;;;;;23.70;47.19;101153.94;5033109;28;20025;-64
2023/07/19 08:11:48;;;;;;;4.70;2.80;;;;;;;23.65;47.32;101150.78;5038665;28;20041;-63
2023/07/19 08:14:14;;;;;;;4.43;2.47;;;;;;;23.98;47.41;101151.09;5035580;28;20025;-64
2023/07/19 08:16:39;;;;;;;4.88;2.13;;;;;;;24.23;45.60;101146.69;5044838;28;20028;-64
2023/07/19 08:19:05;;;;;;;4.75;2.15;;;;;;;24.30;44.30;101143.16;5034737;28;20508;-63
2023/07/19 08:21:34;;;;;;;3.67;1.98;;;;;;;24.46;43.24;101147.03;5030897;28;20064;-64
2023/07/19 08:24:02;;;;;;;4.60;2.10;;;;;;;24.44;41.81;101149.91;5040439;28;20025;-63
2023/07/19 08:26:27;;;;;;;4.63;2.17;;;;;;;24.28;43.19;101152.50;5035628;28;20029;-62
2023/07/19 08:28:53;;;;;;;5.00;1.60;;;;;;;23.98;42.77;101145.66;5035873;28;20426;-63
2023/07/19 08:31:18;;;;;;;3.40;1.80;;;;;;;23.90;42.98;101151.03;5034697;28;20128;-63
2023/07/19 08:33:44;;;;;;;3.22;1.73;;;;;;;24.01;44.11;101145.34;5034803;28;20021;-63
2023/07/19 08:36:10;;;;;;;4.35;1.58;;;;;;;24.21;43.64;101152.28;5034146;28;20036;-63
2023/07/19 08:38:35;;;;;;;2.50;1.50;;;;;;;23.95;43.85;101143.22;5027457;28;20025;-64
2023/07/19 08:41:02;;;;;;;4.45;2.03;;;;;;;24.00;43.90;101143.63;5053026;28;20112;-65
2023/07/19 08:43:29;;;;;;;5.47;1.92;;;;;;;25.54;42.53;101148.13;5038676;28;20239;-63
2023/07/19 08:45:55;;;;;;;3.03;1.85;;;;;;;26.57;39.87;101151.19;5038874;28;20169;-64
2023/07/19 08:48:21;;;;;;;4.78;2.35;;;;;;;26.11;39.22;101148.19;5043723;28;20259;-63
2023/07/19 08:50:54;;;;;;;4.15;1.88;;;;;;;25.55;38.82;101156.16;5034211;28;20025;-63
2023/07/19 08:53:20;;;;;;;3.40;1.60;;;;;;;25.18;40.00;101155.72;5037297;28;20033;-64
2023/07/19 08:55:45;;;;;;;4.43;1.70;;;;;;;25.28;40.05;101150.97;5040183;28;20032;-64
2023/07/19 08:58:10;;;;;;;2.95;1.70;;;;;;;25.18;40.64;101156.59;5039205;28;20029;-63
2023/07/19 09:00:38;;;;;;;4.57;2.10;;;;;;;25.15;40.04;101150.59;5047373;28;20490;-64
2023/07/19 09:03:03;;;;;;;3.40;1.80;;;;;;;24.78;40.12;101151.78;5033050;28;20030;-64
2023/07/19 09:05:29;;;;;;;5.20;2.03;;;;;;;24.51;41.10;101155.56;5032559;28;20047;-64
2023/07/19 09:08:02;;;;;;;5.47;2.35;;;;;;;24.05;42.53;101161.19;5032301;28;20255;-64
2023/07/19 09:10:28;;;;;;;2.55;2.13;;;;;;;24.09;41.36;101148.13;5040770;28;20466;-64
2023/07/19 09:12:54;;;;;;;5.15;2.05;;;;;;;24.06;41.67;101145.72;5040507;28;20086;-64
2023/07/19 09:15:20;;;;;;;4.00;2.00;;;;;;;24.08;42.86;101151.88;5039427;28;20592;-64
2023/07/19 09:17:47;;;;;;;4.05;1.80;;;;;;;24.24;42.88;101146.50;5043993;28;20041;-64
2023/07/19 09:20:14;;;;;;;4.05;2.20;;;;;;;24.48;42.51;101147.72;5042647;28;20406;-64
2023/07/19 09:22:41;;;;;;;5.20;2.17;;;;;;;25.26;41.96;101159.34;5044470;28;20024;-64
2023/07/19 09:25:09;;;;;;;6.85;2.22;;;;;;;25.59;41.47;101153.94;5040343;28;20072;-64
2023/07/19 09:27:35;;;;;;;4.22;2.22;;;;;;;26.03;40.31;101149.03;5036933;28;20507;-64
2023/07/19 09:30:08;;;;;;;4.88;2.30;;;;;;;25.66;41.20;101160.41;5042040;28;20021;-64
2023/07/19 09:32:34;;;;;;;5.82;2.67;;;;;;;25.94;40.84;101160.13;5037854;28;20873;-65
2023/07/19 09:35:04;;;;;;;3.13;2.15;;;;;;;25.99;40.10;101157.75;5041153;28;20025;-64
2023/07/19 09:37:29;;;;;;;4.13;2.38;;;;;;;26.38;39.03;101148.81;5039189;28;20060;-64
2023/07/19 09:39:56;;;;;;;4.80;2.03;;;;;;;27.87;37.55;101148.81;5042927;28;20060;-64
2023/07/19 09:42:24;;;;;;;4.15;2.15;;;;;;;28.62;36.78;101146.06;5034444;28;20035;-64
2023/07/19 09:44:49;;;;;;;5.75;2.70;;;;;;;29.21;35.12;101147.91;5044581;28;20502;-64
2023/07/19 09:47:15;;;;;;;5.57;2.78;;;;;;;30.33;33.99;101141.84;5044862;28;20124;-64
2023/07/19 09:49:42;;;;;;;4.57;2.35;;;;;;;31.36;32.08;101137.34;5041686;28;20318;-64
2023/07/19 09:52:12;;;;;;;4.15;2.20;;;;;;;30.88;32.20;101146.41;5052091;28;20037;-64
2023/07/19 09:54:38;;;;;;;4.25;2.10;;;;;;;30.21;32.63;101145.13;5029818;28;20536;-65
2023/07/19 09:57:04;;;;;;;2.90;2.38;;;;;;;29.55;34.42;101144.47;5044718;28;20487;-65
2023/07/19 09:59:50;;;;;;;4.97;2.83;;;;;;;28.53;36.99;101156.25;5043352;28;20453;-64
2023/07/19 10:02:16;;;;;;;5.38;3.20;;;;;;;27.43;39.10;101150.31;5044213;28;20035;-64
2023/07/19 10:04:44;;;;;;;4.65;2.63;;;;;;;27.11;39.42;101148.63;5044971;28;20408;-65
2023/07/19 10:07:12;;;;;;;6.25;2.78;;;;;;;26.88;40.13;101148.53;5034900;28;20033;-64
2023/07/19 10:09:38;;;;;;;5.30;2.85;;;;;;;26.17;41.34;101154.81;5035531;28;20025;-64
2023/07/19 10:12:15;;;;;;;6.38;2.95;;;;;;;25.58;43.18;101157.69;5043020;28;20044;-64
2023/07/19 10:14:54;;;;;;;5.50;2.50;;;;;;;25.25;44.26;101163.09;5047852;28;20028;-64
2023/07/19 10:17:20;;;;;;;3.17;2.25;;;;;;;24.99;45.59;101151.38;5042697;28;20033;-64
2023/07/19 10:20:04;;;;;;;5.07;2.50;;;;;;;24.85;46.11;101155.56;5052518;28;20067;-64
2023/07/19 10:22:49;;;;;;;;;;;;;;;25.23;44.80;101165.09;5042860;28;20020;-65
2023/07/19 10:25:25;;;;;;;6.13;2.90;;;;;;;25.81;44.65;101156.03;5041229;28;19959;-65
2023/07/19 10:28:06;;;;;;;4.30;3.15;;;;;;;25.96;43.94;101158.06;5042180;28;20411;-65
2023/07/19 10:30:46;;;;;;;6.22;2.80;;;;;;;25.99;43.87;101155.84;5042254;28;20025;-65
2023/07/19 10:33:12;;;;;;;4.70;2.70;;;;;;;26.91;42.53;101155.50;5041637;28;20036;-64
2023/07/19 10:35:39;;;;;;;4.50;2.13;;;;;;;27.04;41.20;101148.44;5047784;28;20087;-65
2023/07/19 10:38:05;;;;;;;4.55;2.30;;;;;;;26.47;42.60;101148.69;5050378;28;20021;-64
2023/07/19 10:40:31;;;;;;;4.15;2.50;;;;;;;26.28;42.78;101146.28;5045702;28;20036;-64
2023/07/19 10:42:56;;;;;;;12.27;3.00;;;;;;;26.30;42.86;101156.00;5050798;28;20051;-65
2023/07/19 10:45:27;;;;;;;7.00;2.38;;;;;;;26.40;42.96;101150.34;5040183;28;20025;-65
2023/07/19 10:47:52;;;;;;;5.70;2.00;;;;;;;27.20;40.78;101152.16;5036604;28;20052;-64
2023/07/19 10:50:18;;;;;;;5.07;2.00;;;;;;;27.08;41.19;101149.78;5042119;28;20016;-64
2023/07/19 10:52:46;;;;;;;3.28;2.05;;;;;;;26.66;42.07;101147.41;5039488;28;20043;-64
2023/07/19 10:55:13;;;;;;;4.30;1.98;;;;;;;26.28;42.88;101149.88;5040138;28;20078;-64
2023/07/19 10:57:39;;;;;;;4.90;2.00;;;;;;;25.89;43.53;101149.75;5041052;28;20032;-65
2023/07/19 11:00:12;;;;;;;4.43;2.17;;;;;;;25.53;43.96;101151.88;5045157;28;20023;-64
2023/07/19 11:02:41;;;;;;;3.30;1.75;;;;;;;25.25;44.60;101149.47;5038160;28;20032;-65
2023/07/19 11:05:09;;;;;;;6.55;2.00;;;;;;;25.48;44.48;101154.28;5035465;28;20189;-64
2023/07/19 11:07:35;;;;;;;3.85;1.55;;;;;;;26.79;42.03;101144.97;5034500;28;20033;-64
2023/07/19 11:10:02;;;;;;;4.05;1.90;;;;;;;28.86;38.60;101146.81;5036417;28;20034;-65
2023/07/19 11:12:30;;;;;;;4.28;1.58;;;;;;;29.85;35.83;101149.84;5041463;28;20099;-65
2023/07/19 11:14:58;;;;;;;3.08;2.03;;;;;;;29.04;36.08;101141.78;5050571;28;20321;-64
2023/07/19 11:17:29;;;;;;;3.25;2.05;;;;;;;30.51;34.71;101140.25;5031106;28;20022;-65
2023/07/19 11:19:55;;;;;;;3.80;1.90;;;;;;;31.58;32.41;101136.09;5029926;28;20036;-65
2023/07/19 11:22:22;;;;;;;2.67;1.38;;;;;;;31.77;31.88;101128.94;5031886;28;20441;-65